createdAt,value
2023-04-15T00:00:08.293Z,21.10
2023-04-15T00:02:37.224Z,21.00
2023-04-15T00:05:07.450Z,21.10
2023-04-15T00:07:35.151Z,21.00
2023-04-15T00:10:04.724Z,21.00
2023-04-15T00:12:32.541Z,21.00
2023-04-15T00:15:00.448Z,20.90
2023-04-15T00:17:28.627Z,20.90
2023-04-15T00:19:56.542Z,20.90
2023-04-15T00:22:25.678Z,20.90
2023-04-15T00:24:54.101Z,20.90
2023-04-15T00:27:21.864Z,20.80
2023-04-15T00:29:49.714Z,20.80
2023-04-15T00:32:17.492Z,20.80
2023-04-15T00:34:45.658Z,20.80
2023-04-15T00:37:13.746Z,20.70
2023-04-15T00:39:43.124Z,20.80
2023-04-15T00:42:11.045Z,20.70
2023-04-15T00:44:39.073Z,20.70
2023-04-15T00:47:07.005Z,20.70
2023-04-15T00:49:34.934Z,20.70
2023-04-15T00:52:02.822Z,20.70
2023-04-15T00:54:30.751Z,20.70
2023-04-15T00:57:00.735Z,20.70
2023-04-15T00:59:28.994Z,20.70
2023-04-15T01:01:57.800Z,20.60
2023-04-15T01:04:26.261Z,20.60
2023-04-15T01:06:54.707Z,20.60
2023-04-15T01:09:22.637Z,20.60
2023-04-15T01:11:50.453Z,20.60
2023-04-15T01:14:20.122Z,20.60
2023-04-15T01:16:48.034Z,20.50
2023-04-15T01:19:16.186Z,20.50
2023-04-15T01:21:43.875Z,20.50
2023-04-15T01:24:11.990Z,20.50
2023-04-15T01:26:42.321Z,20.50
2023-04-15T01:29:11.363Z,20.40
2023-04-15T01:31:39.263Z,20.40
2023-04-15T01:34:07.508Z,20.40
2023-04-15T01:36:35.618Z,20.40
2023-04-15T01:39:03.937Z,20.40
2023-04-15T01:41:31.919Z,20.40
2023-04-15T01:44:01.729Z,20.40
2023-04-15T01:46:30.048Z,20.30
2023-04-15T01:48:58.572Z,20.30
2023-04-15T01:51:27.313Z,20.40
2023-04-15T01:53:57.271Z,20.30
2023-04-15T01:56:25.417Z,20.30
2023-04-15T01:58:53.881Z,20.30
2023-04-15T02:01:23.353Z,20.30
2023-04-15T02:03:51.464Z,20.20
2023-04-15T02:06:19.429Z,20.20
2023-04-15T02:08:47.684Z,20.20
2023-04-15T02:11:15.605Z,20.10
2023-04-15T02:13:43.508Z,20.10
2023-04-15T02:16:17.669Z,20.10
2023-04-15T02:18:47.915Z,20.10
2023-04-15T02:21:15.818Z,20.10
2023-04-15T02:23:44.076Z,20.10
2023-04-15T02:26:12.025Z,20.00
2023-04-15T02:28:39.869Z,20.00
2023-04-15T02:31:08.548Z,20.00
2023-04-15T02:33:36.970Z,20.00
2023-04-15T02:36:07.200Z,20.00
2023-04-15T02:38:35.178Z,20.00
2023-04-15T02:41:03.672Z,20.00
2023-04-15T02:43:31.652Z,20.00
2023-04-15T02:45:59.441Z,20.00
2023-04-15T02:48:27.859Z,19.90
2023-04-15T02:50:55.614Z,19.90
2023-04-15T02:53:24.703Z,19.90
2023-04-15T02:55:52.459Z,19.90
2023-04-15T02:58:20.420Z,19.80
2023-04-15T03:00:51.262Z,19.80
2023-04-15T03:03:19.242Z,19.80
2023-04-15T03:05:47.530Z,19.80
2023-04-15T03:08:15.804Z,19.80
2023-04-15T03:10:44.829Z,19.70
2023-04-15T03:13:12.751Z,19.70
2023-04-15T03:15:40.710Z,19.70
2023-04-15T03:18:09.202Z,19.70
2023-04-15T03:20:37.303Z,19.70
2023-04-15T03:23:05.292Z,19.60
2023-04-15T03:25:33.176Z,19.60
2023-04-15T03:28:02.977Z,19.50
2023-04-15T03:30:30.874Z,19.50
2023-04-15T03:32:58.643Z,19.50
2023-04-15T03:35:26.664Z,19.50
2023-04-15T03:37:54.463Z,19.50
2023-04-15T03:40:22.589Z,19.50
2023-04-15T03:42:50.360Z,19.50
2023-04-15T03:45:20.254Z,19.50
2023-04-15T03:47:48.266Z,19.50
2023-04-15T03:50:16.233Z,19.50
2023-04-15T03:52:44.102Z,19.40
2023-04-15T03:55:11.918Z,19.40
2023-04-15T03:57:39.917Z,19.40
2023-04-15T04:00:09.577Z,19.40
2023-04-15T04:02:38.908Z,19.40
2023-04-15T04:05:07.628Z,19.40
2023-04-15T04:07:36.032Z,19.40
2023-04-15T04:10:04.662Z,19.40
2023-04-15T04:12:32.919Z,19.40
2023-04-15T04:15:00.739Z,19.40
2023-04-15T04:17:28.661Z,19.30
2023-04-15T04:19:57.722Z,19.30
2023-04-15T04:22:26.011Z,19.30
2023-04-15T04:24:53.724Z,19.30
2023-04-15T04:27:21.930Z,19.30
2023-04-15T04:29:50.281Z,19.30
2023-04-15T04:32:17.960Z,19.40
2023-04-15T04:34:45.664Z,19.30
2023-04-15T04:37:14.802Z,19.40
2023-04-15T04:39:42.683Z,19.30
2023-04-15T04:42:10.502Z,19.30
2023-04-15T04:44:38.530Z,19.40
2023-04-15T04:47:07.427Z,19.40
2023-04-15T04:49:35.501Z,19.40
2023-04-15T04:52:03.155Z,19.40
2023-04-15T04:54:32.190Z,19.40
2023-04-15T04:57:00.017Z,19.40
2023-04-15T04:59:28.741Z,19.40
2023-04-15T05:01:56.688Z,19.40
2023-04-15T05:04:24.984Z,19.40
2023-04-15T05:06:52.809Z,19.40
2023-04-15T05:09:21.294Z,19.40
2023-04-15T05:11:50.636Z,19.40
2023-04-15T05:14:19.001Z,19.40
2023-04-15T05:16:46.869Z,19.50
2023-04-15T05:19:14.777Z,19.50
2023-04-15T05:21:43.159Z,19.50
2023-04-15T05:24:10.938Z,19.50
2023-04-15T05:26:38.781Z,19.40
2023-04-15T05:29:08.072Z,19.50
2023-04-15T05:31:36.310Z,19.50
2023-04-15T05:34:05.369Z,19.50
2023-04-15T05:36:33.340Z,19.50
2023-04-15T05:39:01.588Z,19.50
2023-04-15T05:41:29.922Z,19.50
2023-04-15T05:43:57.917Z,19.50
2023-04-15T05:46:27.500Z,19.50
2023-04-15T05:48:56.625Z,19.50
2023-04-15T05:51:24.803Z,19.50
2023-04-15T05:53:53.098Z,19.50
2023-04-15T05:56:21.521Z,19.50
2023-04-15T05:58:50.131Z,19.50
2023-04-15T06:01:18.839Z,19.50
2023-04-15T06:03:48.792Z,19.50
2023-04-15T06:06:17.108Z,19.50
2023-04-15T06:08:44.985Z,19.50
2023-04-15T06:11:13.536Z,19.50
2023-04-15T06:13:41.400Z,19.50
2023-04-15T06:16:12.507Z,19.50
2023-04-15T06:18:40.409Z,19.50
2023-04-15T06:21:10.312Z,19.50
2023-04-15T06:23:38.211Z,19.50
2023-04-15T06:26:06.650Z,19.50
2023-04-15T06:28:34.826Z,19.50
2023-04-15T06:31:02.567Z,19.50
2023-04-15T06:33:33.188Z,19.50
2023-04-15T06:36:01.990Z,19.50
2023-04-15T06:38:31.419Z,19.50
2023-04-15T06:41:00.260Z,19.50
2023-04-15T06:43:37.754Z,19.50
2023-04-15T06:46:10.620Z,19.50
2023-04-15T06:48:39.220Z,19.50
2023-04-15T06:51:07.213Z,19.50
2023-04-15T06:53:40.884Z,19.50
2023-04-15T06:56:09.486Z,19.60
2023-04-15T06:58:37.594Z,19.60
2023-04-15T07:01:05.438Z,19.60
2023-04-15T07:03:33.403Z,19.60
2023-04-15T07:06:01.726Z,19.60
2023-04-15T07:08:29.716Z,19.60
2023-04-15T07:10:58.988Z,19.60
2023-04-15T07:13:27.283Z,19.60
2023-04-15T07:15:55.742Z,19.60
2023-04-15T07:18:23.570Z,19.60
2023-04-15T07:20:51.661Z,19.60
2023-04-15T07:23:19.500Z,19.60
2023-04-15T07:25:47.474Z,19.60
2023-04-15T07:28:16.689Z,19.60
2023-04-15T07:30:44.986Z,19.60
2023-04-15T07:33:13.113Z,19.60
2023-04-15T07:35:40.780Z,19.60
2023-04-15T07:38:08.839Z,19.60
2023-04-15T07:40:36.528Z,19.60
2023-04-15T07:43:04.580Z,19.60
2023-04-15T07:45:34.025Z,19.60
2023-04-15T07:48:02.146Z,19.60
2023-04-15T07:50:29.943Z,19.60
2023-04-15T07:52:57.726Z,19.70
2023-04-15T07:55:28.157Z,19.70
2023-04-15T07:57:55.972Z,19.70
2023-04-15T08:00:24.327Z,19.70
2023-04-15T08:02:54.479Z,19.80
2023-04-15T08:05:22.505Z,19.80
2023-04-15T08:07:50.760Z,19.80
2023-04-15T08:10:18.567Z,19.90
2023-04-15T08:12:49.031Z,19.90
2023-04-15T08:15:17.091Z,19.90
2023-04-15T08:17:44.755Z,19.90
2023-04-15T08:20:14.412Z,19.90
2023-04-15T08:22:42.673Z,19.90
2023-04-15T08:25:11.684Z,19.90
2023-04-15T08:27:39.550Z,20.00
2023-04-15T08:30:09.009Z,20.00
2023-04-15T08:32:45.140Z,20.00
2023-04-15T08:35:14.510Z,20.00
2023-04-15T08:37:42.883Z,19.90
2023-04-15T08:40:12.060Z,20.00
2023-04-15T08:42:45.700Z,20.00
2023-04-15T08:45:13.557Z,20.00
2023-04-15T08:47:41.864Z,20.00
2023-04-15T08:50:10.744Z,20.00
2023-04-15T08:52:40.651Z,20.00
2023-04-15T08:55:29.300Z,20.10
2023-04-15T08:58:10.353Z,20.00
2023-04-15T09:00:52.395Z,20.00
2023-04-15T09:03:23.949Z,20.00
2023-04-15T09:06:01.139Z,20.00
2023-04-15T09:08:30.900Z,20.00
2023-04-15T09:11:08.508Z,20.00
2023-04-15T09:13:39.370Z,20.10
2023-04-15T09:16:08.474Z,20.10
2023-04-15T09:21:11.535Z,20.10
2023-04-15T09:23:41.873Z,20.10
2023-04-15T09:26:09.866Z,20.10
2023-04-15T09:28:43.360Z,20.10
2023-04-15T09:34:13.582Z,20.20
2023-04-15T09:36:56.497Z,20.20
2023-04-15T09:40:05.162Z,20.20
2023-04-15T09:42:41.170Z,20.30
2023-04-15T09:45:12.618Z,20.30
2023-04-15T09:47:44.810Z,20.30
2023-04-15T09:50:13.053Z,20.20
2023-04-15T09:52:45.800Z,20.20
2023-04-15T09:55:20.560Z,20.20
2023-04-15T09:57:51.142Z,20.30
2023-04-15T10:00:22.562Z,20.30
2023-04-15T10:03:04.651Z,20.30
2023-04-15T10:05:40.418Z,20.20
2023-04-15T10:08:35.078Z,20.20
2023-04-15T10:11:37.185Z,20.20
2023-04-15T10:14:05.189Z,20.10
2023-04-15T10:16:34.314Z,20.10
2023-04-15T10:19:04.462Z,20.10
2023-04-15T10:21:32.875Z,20.10
2023-04-15T10:24:02.024Z,20.10
2023-04-15T10:26:31.762Z,20.00
2023-04-15T10:29:00.209Z,20.00
2023-04-15T10:31:28.679Z,20.00
2023-04-15T10:33:56.456Z,20.00
2023-04-15T10:36:24.565Z,20.10
2023-04-15T10:38:52.510Z,20.20
2023-04-15T10:41:22.053Z,20.10
2023-04-15T10:43:53.024Z,20.20
2023-04-15T10:46:25.937Z,20.20
2023-04-15T10:48:54.584Z,20.30
2023-04-15T10:51:29.446Z,20.40
2023-04-15T10:54:00.845Z,20.50
2023-04-15T10:56:30.378Z,20.50
2023-04-15T10:59:02.453Z,20.50
2023-04-15T11:01:53.251Z,20.50
2023-04-15T11:04:52.587Z,20.40
2023-04-15T11:07:35.628Z,20.30
2023-04-15T11:10:03.496Z,20.30
2023-04-15T11:12:37.461Z,20.30
2023-04-15T11:15:31.146Z,20.70
2023-04-15T11:17:59.537Z,21.20
2023-04-15T11:20:27.663Z,21.40
2023-04-15T11:23:14.208Z,21.70
2023-04-15T11:25:44.238Z,21.90
2023-04-15T11:28:12.638Z,22.00
2023-04-15T11:30:42.333Z,22.00
2023-04-15T11:33:12.231Z,22.00
2023-04-15T11:35:42.676Z,22.00
2023-04-15T11:38:11.942Z,22.00
2023-04-15T11:40:40.261Z,22.00
2023-04-15T11:43:08.699Z,21.90
2023-04-15T11:45:36.951Z,21.90
2023-04-15T11:48:09.454Z,21.80
2023-04-15T11:50:37.496Z,21.70
2023-04-15T11:53:08.370Z,21.60
2023-04-15T11:55:43.386Z,21.50
2023-04-15T11:58:12.307Z,21.60
2023-04-15T12:00:41.574Z,21.60
2023-04-15T12:03:19.101Z,21.80
2023-04-15T12:06:20.486Z,22.00
2023-04-15T12:09:01.863Z,22.10
2023-04-15T12:11:40.560Z,22.20
2023-04-15T12:14:13.224Z,22.30
2023-04-15T12:16:48.437Z,22.40
2023-04-15T12:19:20.329Z,22.40
2023-04-15T12:21:48.986Z,22.40
2023-04-15T12:24:16.865Z,22.50
2023-04-15T12:26:45.860Z,22.50
2023-04-15T12:29:14.752Z,22.50
2023-04-15T12:31:52.657Z,22.60
2023-04-15T12:34:28.814Z,22.60
2023-04-15T12:36:56.713Z,22.60
2023-04-15T12:39:25.269Z,22.70
2023-04-15T12:41:53.232Z,22.70
2023-04-15T12:44:21.159Z,22.70
2023-04-15T12:46:49.186Z,22.80
2023-04-15T12:49:20.374Z,22.80
2023-04-15T12:51:49.947Z,22.70
2023-04-15T12:54:18.011Z,21.90
2023-04-15T12:56:46.156Z,20.30
2023-04-15T12:59:14.432Z,19.40
2023-04-15T13:01:42.503Z,18.50
2023-04-15T13:04:10.482Z,18.50
2023-04-15T13:06:38.554Z,19.20
2023-04-15T13:09:08.183Z,19.70
2023-04-15T13:11:36.631Z,20.10
2023-04-15T13:14:05.661Z,20.30
2023-04-15T13:16:33.891Z,20.40
2023-04-15T13:19:02.346Z,20.50
2023-04-15T13:21:31.431Z,20.60
2023-04-15T13:23:59.338Z,20.60
2023-04-15T13:26:29.212Z,20.60
2023-04-15T13:28:57.335Z,20.70
2023-04-15T13:31:25.228Z,20.70
2023-04-15T13:33:53.265Z,20.70
2023-04-15T13:36:21.355Z,20.70
2023-04-15T13:38:51.397Z,20.70
2023-04-15T13:41:20.461Z,20.70
2023-04-15T13:43:49.967Z,20.70
2023-04-15T13:46:18.286Z,20.70
2023-04-15T13:48:46.274Z,20.70
2023-04-15T13:51:14.343Z,20.70
2023-04-15T13:53:42.359Z,20.70
2023-04-15T13:56:10.919Z,20.70
2023-04-15T13:58:39.155Z,20.70
2023-04-15T14:01:09.091Z,20.70
2023-04-15T14:03:37.292Z,20.60
2023-04-15T14:06:06.273Z,20.60
2023-04-15T14:08:34.317Z,20.60
2023-04-15T14:11:02.289Z,20.60
2023-04-15T14:13:30.397Z,20.70
2023-04-15T14:16:30.180Z,20.70
2023-04-15T14:18:58.298Z,20.70
2023-04-15T14:21:26.303Z,20.70
2023-04-15T14:23:54.803Z,20.80
2023-04-15T14:26:24.973Z,20.90
2023-04-15T14:28:53.671Z,20.90
2023-04-15T14:31:23.221Z,20.90
2023-04-15T14:33:51.296Z,21.00
2023-04-15T14:36:19.456Z,21.10
2023-04-15T14:38:48.605Z,21.20
2023-04-15T14:41:17.371Z,21.40
2023-04-15T14:43:45.755Z,21.40
2023-04-15T14:46:14.438Z,21.40
2023-04-15T14:48:43.968Z,21.40
2023-04-15T14:51:11.753Z,21.40
2023-04-15T14:53:39.508Z,21.30
2023-04-15T14:56:08.442Z,21.30
2023-04-15T14:58:36.330Z,21.30
2023-04-15T15:01:04.522Z,21.30
2023-04-15T15:03:32.421Z,21.20
2023-04-15T15:06:01.910Z,21.30
2023-04-15T15:08:30.001Z,21.20
2023-04-15T15:10:57.803Z,21.30
2023-04-15T15:13:25.858Z,21.40
2023-04-15T15:15:54.243Z,21.40
2023-04-15T15:18:22.059Z,21.50
2023-04-15T15:20:49.806Z,21.50
2023-04-15T15:23:18.916Z,21.50
2023-04-15T15:25:47.186Z,21.70
2023-04-15T15:28:15.842Z,21.70
2023-04-15T15:30:43.930Z,21.70
2023-04-15T15:33:12.012Z,21.70
2023-04-15T15:35:41.040Z,21.60
2023-04-15T15:38:09.472Z,21.70
2023-04-15T15:40:38.932Z,21.80
2023-04-15T15:43:07.038Z,21.80
2023-04-15T15:45:37.150Z,21.80
2023-04-15T15:48:06.139Z,21.80
2023-04-15T15:50:34.980Z,21.80
2023-04-15T15:53:02.970Z,21.80
2023-04-15T15:55:30.900Z,21.80
2023-04-15T15:57:59.967Z,21.80
2023-04-15T16:00:27.847Z,21.80
2023-04-15T16:03:06.702Z,21.90
2023-04-15T16:05:35.839Z,21.90
2023-04-15T16:08:03.757Z,21.90
2023-04-15T16:10:31.786Z,21.80
2023-04-15T16:13:02.387Z,21.80
2023-04-15T16:15:30.459Z,21.80
2023-04-15T16:17:58.492Z,21.80
2023-04-15T16:20:26.566Z,21.80
2023-04-15T16:22:54.624Z,21.70
2023-04-15T16:25:22.774Z,21.60
2023-04-15T16:28:02.953Z,21.50
2023-04-15T16:30:38.090Z,21.40
2023-04-15T16:33:06.226Z,21.30
2023-04-15T16:35:34.919Z,21.30
2023-04-15T16:38:03.138Z,21.30
2023-04-15T16:40:31.232Z,21.30
2023-04-15T16:42:59.346Z,21.30
2023-04-15T16:45:27.401Z,21.20
2023-04-15T16:47:57.356Z,21.20
2023-04-15T16:50:25.320Z,21.10
2023-04-15T16:52:53.325Z,21.20
2023-04-15T16:55:21.851Z,21.20
2023-04-15T16:58:02.028Z,21.20
2023-04-15T17:00:31.674Z,21.20
2023-04-15T17:03:01.622Z,21.20
2023-04-15T17:05:30.790Z,21.20
2023-04-15T17:07:59.162Z,21.20
2023-04-15T17:10:27.134Z,21.20
2023-04-15T17:12:56.964Z,21.20
2023-04-15T17:15:24.874Z,21.20
2023-04-15T17:17:52.755Z,21.20
2023-04-15T17:20:22.064Z,21.20
2023-04-15T17:22:50.122Z,21.20
2023-04-15T17:25:18.610Z,21.20
2023-04-15T17:27:46.775Z,21.20
2023-04-15T17:30:15.230Z,21.20
2023-04-15T17:32:43.454Z,21.20
2023-04-15T17:35:14.230Z,21.10
2023-04-15T17:37:43.685Z,21.10
2023-04-15T17:40:12.925Z,21.10
2023-04-15T17:42:41.497Z,21.10
2023-04-15T17:45:10.188Z,21.00
2023-04-15T17:47:41.607Z,21.00
2023-04-15T17:50:10.285Z,21.00
2023-04-15T17:52:38.433Z,20.90
2023-04-15T17:55:09.075Z,21.00
2023-04-15T17:57:37.076Z,21.00
2023-04-15T18:00:05.683Z,20.90
2023-04-15T18:02:36.742Z,20.90
2023-04-15T18:05:08.285Z,20.90
2023-04-15T18:07:36.312Z,20.90
2023-04-15T18:10:04.479Z,20.90
2023-04-15T18:12:33.823Z,20.90
2023-04-15T18:15:11.413Z,20.90
2023-04-15T18:17:39.474Z,20.90
2023-04-15T18:20:08.495Z,20.80
2023-04-15T18:22:36.971Z,20.80
2023-04-15T18:25:05.517Z,20.80
2023-04-15T18:27:35.552Z,20.80
2023-04-15T18:30:03.349Z,20.80
2023-04-15T18:32:32.709Z,20.80
2023-04-15T18:35:00.836Z,20.80
2023-04-15T18:37:29.816Z,20.80
2023-04-15T18:39:57.769Z,20.80
2023-04-15T18:42:27.613Z,20.70
2023-04-15T18:45:01.322Z,20.70
2023-04-15T18:47:29.460Z,20.70
2023-04-15T18:49:58.529Z,20.70
2023-04-15T18:52:26.758Z,20.70
2023-04-15T18:54:57.423Z,20.70
2023-04-15T18:57:30.761Z,20.70
2023-04-15T19:00:05.779Z,20.70
2023-04-15T19:02:33.928Z,20.70
2023-04-15T19:05:04.615Z,20.70
2023-04-15T19:07:35.911Z,20.60
2023-04-15T19:10:04.300Z,20.70
2023-04-15T19:12:32.406Z,20.60
2023-04-15T19:15:00.548Z,20.60
2023-04-15T19:17:30.162Z,20.60
2023-04-15T19:19:58.234Z,20.60
2023-04-15T19:22:26.414Z,20.60
2023-04-15T19:24:54.345Z,20.60
2023-04-15T19:27:22.297Z,20.60
2023-04-15T19:29:55.264Z,20.60
2023-04-15T19:32:26.913Z,20.60
2023-04-15T19:34:58.935Z,20.60
2023-04-15T19:37:28.053Z,20.60
2023-04-15T19:39:56.039Z,20.60
2023-04-15T19:42:24.072Z,20.60
2023-04-15T19:44:51.758Z,20.60
2023-04-15T19:47:19.692Z,20.60
2023-04-15T19:49:47.445Z,20.50
2023-04-15T19:52:16.705Z,20.50
2023-04-15T19:54:44.471Z,20.50
2023-04-15T19:57:12.294Z,20.50
2023-04-15T19:59:47.367Z,20.50
2023-04-15T20:02:15.502Z,20.50
2023-04-15T20:04:43.599Z,20.50
2023-04-15T20:07:11.755Z,20.50
2023-04-15T20:09:43.872Z,20.50
2023-04-15T20:12:51.497Z,20.50
2023-04-15T20:14:59.595Z,20.40
2023-04-15T20:17:27.474Z,20.40
2023-04-15T20:19:55.510Z,20.40
2023-04-15T20:22:23.979Z,20.40
2023-04-15T20:24:53.282Z,20.40
2023-04-15T20:27:22.573Z,20.40
2023-04-15T20:29:52.018Z,20.30
2023-04-15T20:32:20.491Z,20.30
2023-04-15T20:34:48.668Z,20.30
2023-04-15T20:37:17.077Z,20.30
2023-04-15T20:39:45.457Z,20.40
2023-04-15T20:42:14.938Z,20.30
2023-04-15T20:44:42.965Z,20.30
2023-04-15T20:47:10.962Z,20.30
2023-04-15T20:49:39.566Z,20.30
2023-04-15T20:52:08.774Z,20.30
2023-04-15T20:54:36.864Z,20.40
2023-04-15T20:57:05.010Z,20.30
2023-04-15T20:59:34.902Z,20.30
2023-04-15T21:02:02.838Z,20.30
2023-04-15T21:04:30.877Z,20.30
2023-04-15T21:06:59.105Z,20.30
2023-04-15T21:09:26.872Z,20.20
2023-04-15T21:12:00.969Z,20.20
2023-04-15T21:14:29.865Z,20.20
2023-04-15T21:16:59.570Z,20.20
2023-04-15T21:19:28.047Z,20.20
2023-04-15T21:21:55.970Z,20.20
2023-04-15T21:24:23.886Z,20.20
2023-04-15T21:26:51.751Z,20.20
2023-04-15T21:29:19.705Z,20.20
2023-04-15T21:31:47.595Z,20.20
2023-04-15T21:34:18.228Z,20.10
2023-04-15T21:36:45.993Z,20.10
2023-04-15T21:39:13.780Z,20.00
2023-04-15T21:41:41.634Z,20.00
2023-04-15T21:44:09.792Z,20.00
2023-04-15T21:46:37.701Z,20.00
2023-04-15T21:49:07.570Z,20.00
2023-04-15T21:51:37.100Z,20.00
2023-04-15T21:54:08.371Z,19.90
2023-04-15T21:56:37.923Z,19.90
2023-04-15T21:59:07.079Z,19.90
2023-04-15T22:01:35.116Z,19.90
2023-04-15T22:04:03.361Z,19.90
2023-04-15T22:06:31.641Z,19.90
2023-04-15T22:09:01.311Z,19.90
2023-04-15T22:11:30.931Z,19.90
2023-04-15T22:13:59.005Z,19.80
2023-04-15T22:16:27.796Z,19.80
2023-04-15T22:18:56.008Z,19.80
2023-04-15T22:21:24.539Z,19.80
2023-04-15T22:23:52.540Z,19.70
2023-04-15T22:26:21.982Z,19.70
2023-04-15T22:28:50.014Z,19.70
2023-04-15T22:31:18.015Z,19.70
2023-04-15T22:33:46.002Z,19.70
2023-04-15T22:36:14.980Z,19.70
2023-04-15T22:38:43.142Z,19.70
2023-04-15T22:41:11.248Z,19.60
2023-04-15T22:43:40.919Z,19.60
2023-04-15T22:46:08.976Z,19.60
2023-04-15T22:48:37.034Z,19.60
2023-04-15T22:51:06.027Z,19.60
2023-04-15T22:53:33.950Z,19.60
2023-04-15T22:56:02.019Z,19.60
2023-04-15T22:58:32.110Z,19.50
2023-04-15T23:01:01.267Z,19.50
2023-04-15T23:03:29.159Z,19.50
2023-04-15T23:05:57.048Z,19.50
2023-04-15T23:08:24.942Z,19.50
2023-04-15T23:10:52.986Z,19.50
2023-04-15T23:13:21.549Z,19.50
2023-04-15T23:15:49.583Z,19.40
2023-04-15T23:18:19.111Z,19.40
2023-04-15T23:20:47.102Z,19.40
2023-04-15T23:23:15.645Z,19.40
2023-04-15T23:25:43.630Z,19.40
2023-04-15T23:28:12.032Z,19.40
2023-04-15T23:30:40.320Z,19.30
2023-04-15T23:33:08.466Z,19.30
2023-04-15T23:35:38.033Z,19.30
2023-04-15T23:38:05.923Z,19.30
2023-04-15T23:40:33.878Z,19.30
2023-04-15T23:43:01.971Z,19.30
2023-04-15T23:45:29.659Z,19.20
2023-04-15T23:47:57.421Z,19.20
2023-04-15T23:50:25.578Z,19.30
2023-04-15T23:52:55.138Z,19.30
2023-04-15T23:55:23.307Z,19.20
2023-04-15T23:57:51.185Z,19.20
